• Join FlightAware (Why Join?)
  • Login
  • US Flag 
11:21PM EDT


 

Airport Tracker/Info


-or-


 

Live Flight TrackerFlight Track Log ✈ SWA4045 ✈ 03-Dec-2013 ✈ KMHT - KMDW

Flight Track Log - Related Links

Times and Time Zones

All times are in EST time to prevent confusion due to time zone crossing. See the SWA4045 flight status page for this flight to view local times or setup timezone preferences in your user account.

Time Position Orientation Groundspeed Altitude Reporting Facility
EST Latitude Longitude Course Direction KTS MPH feet Rate Location/Type
06:12PM 42.9500 -71.4167 20° North 170 196 1,200  Level KA90
06:12PM 42.9833 -71.4000 20° North 188 216 2,700 2,580 Climbing KA90
06:13PM 43.0333 -71.3667 26° Northeast 226 260 5,600 2,820 Climbing KA90
06:14PM 43.0553 -71.4178 300° West 225 259 7,400 2,640 Climbing Boston Center
06:15PM 43.0944 -71.4944 305° West 245 282 10,200 1,980 Climbing Boston Center
06:16PM 43.1408 -71.6017 301° West 313 360 11,500 1,980 Climbing Boston Center
06:17PM 43.1433 -71.7339 272° West 349 402 14,300 2,460 Climbing Boston Center
06:18PM 43.1425 -71.8708 270° West 361 415 16,700 2,220 Climbing Boston Center
06:19PM 43.0872 -72.0094 241° Southwest 383 441 19,000 1,620 Climbing Boston Center
06:20PM 43.0458 -72.1206 243° Southwest 394 453 20,000 1,620 Climbing Boston Center
06:21PM 43.0547 -72.3006 274° West 391 450 22,400 2,040 Climbing Boston Center
06:22PM 43.0622 -72.4531 274° West 395 455 24,200 1,560 Climbing Boston Center
06:23PM 43.0669 -72.6125 272° West 412 474 25,700 1,500 Climbing Boston Center
06:24PM 43.0686 -72.7939 271° West 430 495 27,400 1,680 Climbing Boston Center
06:25PM 43.0647 -72.9544 268° West 425 489 29,200 1,500 Climbing Boston Center
06:26PM 43.0606 -73.0931 268° West 423 487 30,600 1,380 Climbing Boston Center
06:27PM 43.0581 -73.2522 269° West 423 487 32,000 1,260 Climbing Boston Center
06:28PM 43.0522 -73.4217 267° West 419 482 33,200 960 Climbing Boston Center
06:29PM 43.0561 -73.5789 272° West 415 478 34,000 360 Climbing Boston Center
06:30PM 43.1306 -73.7167 307° West 409 471 34,000  Level Boston Center
06:31PM 43.2381 -73.8028 330° Northwest 412 474 34,000 60 Level Boston Center
06:32PM 43.3344 -73.8794 330° Northwest 403 464 34,200 480 Climbing Boston Center
06:33PM 43.4381 -73.9653 329° Northwest 401 461 35,100 720 Climbing Boston Center
06:34PM 43.5228 -74.0653 319° Northwest 410 472 35,700 420 Climbing Boston Center
06:35PM 43.5333 -74.1969 276° West 399 459 36,000 120 Climbing Boston Center
06:36PM 43.4675 -74.3225 234° Southwest 414 476 36,000  Level Boston Center
06:37PM 43.3781 -74.4300 221° Southwest 424 488 36,000  Level Boston Center
06:38PM 43.3378 -74.6061 253° West 408 470 36,000  Level Boston Center
06:40PM 43.3214 -74.7597 262° West 408 470 36,000  Level Boston Center
06:41PM 43.3053 -74.9153 262° West 411 473 36,000  Level Boston Center
06:42PM 43.2897 -75.0703 262° West 409 471 36,000  Level Boston Center
06:43PM 43.2647 -75.2194 257° West 411 473 36,000  Level Boston Center
06:44PM 43.2317 -75.3772 254° West 403 464 36,000  Level Boston Center
06:45PM 43.2050 -75.5222 256° West 392 451 36,000  Level Boston Center
06:46PM 43.1761 -75.6650 255° West 388 447 36,000  Level Boston Center
06:47PM 43.1472 -75.8036 254° West 380 437 36,000  Level Boston Center
06:48PM 43.1206 -75.9406 255° West 375 432 36,000  Level Boston Center
06:49PM 43.0933 -76.0756 255° West 369 425 36,000  Level Boston Center
06:50PM 43.0653 -76.2106 254° West 368 423 36,000  Level Boston Center
06:51PM 43.0328 -76.3711 255° West 367 422 36,000  Level Boston Center
06:52PM 43.0042 -76.5039 254° West 366 421 36,000 -360 Level Boston Center
06:53PM 42.9781 -76.6369 255° West 363 418 35,300 -840 Descending Boston Center
06:54PM 42.9508 -76.7544 252° West 361 415 34,500 -720 Descending Cleveland Center
06:55PM 42.9236 -76.8906 255° West 369 425 34,000 -300 Descending Cleveland Center
06:56PM 42.8944 -77.0269 254° West 375 432 34,000  Level Cleveland Center
06:57PM 42.8528 -77.1636 247° West 389 448 34,000  Level Cleveland Center
06:58PM 42.8069 -77.2989 245° Southwest 394 453 34,000  Level Cleveland Center
06:59PM 42.7539 -77.4608 246° West 394 453 34,000  Level Cleveland Center
07:00PM 42.7186 -77.5692 246° West 395 455 34,000  Level Cleveland Center
07:01PM 42.6672 -77.7192 245° Southwest 395 455 34,000  Level Cleveland Center
07:02PM 42.6222 -77.8569 246° West 395 455 34,000  Level Cleveland Center
07:03PM 42.5675 -78.0194 245° Southwest 397 457 34,000  Level Cleveland Center
07:04PM 42.5217 -78.1544 245° Southwest 397 457 34,000  Level Cleveland Center
07:05PM 42.4761 -78.2894 245° Southwest 395 455 34,000  Level Cleveland Center
07:06PM 42.4294 -78.4244 245° Southwest 397 457 34,000  Level Cleveland Center
07:07PM 42.3831 -78.5586 245° Southwest 396 456 34,000  Level Cleveland Center
07:08PM 42.3281 -78.7186 245° Southwest 392 451 34,000  Level Cleveland Center
07:09PM 42.2814 -78.8511 245° Southwest 391 450 34,000  Level Cleveland Center
07:10PM 42.2408 -78.9722 246° West 389 448 34,000  Level Cleveland Center
07:11PM 42.1883 -79.1292 246° West 387 445 34,000  Level Cleveland Center
07:12PM 42.1708 -79.2661 260° West 374 430 34,000  Level Cleveland Center
07:13PM 42.1539 -79.4031 261° West 375 432 34,000  Level Cleveland Center
07:14PM 42.1364 -79.5411 260° West 375 432 34,000  Level Cleveland Center
07:15PM 42.1192 -79.6811 261° West 381 438 34,000  Level Cleveland Center
07:16PM 42.0972 -79.8481 260° West 382 440 34,000  Level Cleveland Center
07:17PM 42.0803 -79.9811 260° West 381 438 34,000  Level Cleveland Center
07:18PM 42.0625 -80.1264 261° West 391 450 34,000  Level Cleveland Center
07:20PM 42.0436 -80.2664 260° West 384 442 34,000  Level Cleveland Center
07:21PM 42.0250 -80.4083 260° West 387 445 34,000  Level Cleveland Center
07:22PM 42.0028 -80.5725 260° West 380 437 34,000  Level Cleveland Center
07:23PM 41.9828 -80.7144 259° West 383 441 34,000  Level Cleveland Center
07:24PM 41.9644 -80.8558 260° West 383 441 34,000  Level Cleveland Center
07:25PM 41.9444 -80.9961 259° West 381 438 34,000  Level Cleveland Center
07:26PM 41.9239 -81.1378 259° West 384 442 34,000  Level Cleveland Center
07:27PM 41.9047 -81.2792 260° West 384 442 34,000  Level Cleveland Center
07:28PM 41.8839 -81.4214 259° West 388 447 34,000  Level Cleveland Center
07:29PM 41.8592 -81.5881 259° West 389 448 34,000  Level Cleveland Center
07:30PM 41.8394 -81.7294 259° West 386 444 34,000  Level Cleveland Center
07:31PM 41.8197 -81.8711 259° West 386 444 34,000  Level Cleveland Center
07:32PM 41.7975 -82.0128 258° West 387 445 34,000  Level Cleveland Center
07:33PM 41.7753 -82.1689 259° West 387 445 34,000  Level Cleveland Center
07:34PM 41.7547 -82.3078 259° West 384 442 34,000  Level Cleveland Center
07:35PM 41.7336 -82.4497 259° West 387 445 34,000  Level Cleveland Center
07:36PM 41.7136 -82.5903 259° West 385 443 34,000  Level Cleveland Center
07:37PM 41.7003 -82.7333 263° West 388 447 34,000  Level Cleveland Center
07:38PM 41.6850 -82.8767 262° West 389 448 34,000  Level Cleveland Center
07:39PM 41.6689 -83.0189 261° West 387 445 34,000  Level Cleveland Center
07:40PM 41.6511 -83.1903 262° West 387 445 34,000  Level Cleveland Center
07:41PM 41.6353 -83.3331 262° West 389 448 34,000  Level Cleveland Center
07:42PM 41.6186 -83.4747 261° West 385 443 34,000  Level Cleveland Center
07:43PM 41.6036 -83.6147 262° West 382 440 34,000  Level Cleveland Center
07:44PM 41.5864 -83.7553 261° West 383 441 34,000  Level Cleveland Center
07:45PM 41.5708 -83.8961 262° West 381 438 34,000  Level Cleveland Center
07:46PM 41.5539 -84.0364 261° West 383 441 34,000  Level Cleveland Center
07:47PM 41.5353 -84.1881 261° West 384 442 34,000  Level Chicago Center
07:48PM 41.5197 -84.3275 262° West 380 437 34,000 -660 Level Chicago Center
07:49PM 41.5025 -84.4611 260° West 368 423 32,700 -1,440 Descending Chicago Center
07:50PM 41.4872 -84.5894 261° West 352 405 31,100 -1,320 Descending Chicago Center
07:51PM 41.4839 -84.7306 268° West 378 435 30,000 -540 Descending Chicago Center
07:52PM 41.4892 -84.8775 273° West 397 457 30,000  Level Chicago Center
07:53PM 41.4944 -85.0236 273° West 395 455 30,000 -420 Level Chicago Center
07:54PM 41.5006 -85.2006 273° West 396 456 29,200 -1,980 Descending Chicago Center
07:56PM 41.5044 -85.3494 272° West 396 456 26,000 -2,520 Descending Chicago Center
07:57PM 41.5097 -85.4969 273° West 388 447 24,000 -1,620 Descending Chicago Center
07:58PM 41.5136 -85.6403 272° West 381 438 22,700 -1,800 Descending Chicago Center
07:59PM 41.5178 -85.7742 272° West 362 417 20,400 -2,340 Descending Chicago Center
08:00PM 41.5211 -85.9050 272° West 352 405 17,900 -1,980 Descending Chicago Center
08:01PM 41.5247 -86.0333 272° West 347 399 16,400 -1,500 Descending Chicago Center
08:02PM 41.5242 -86.1647 270° West 353 406 14,900 -2,100 Descending Chicago Center
08:03PM 41.5228 -86.3156 269° West 340 391 12,200 -1,920 Descending Chicago Center
08:04PM 41.5222 -86.4364 270° West 329 379 11,000 -1,020 Descending Chicago Center
08:05PM 41.5211 -86.5533 269° West 317 365 10,200 -540 Descending Chicago Center
08:06PM 41.5197 -86.6553 269° West 280 322 10,000 -120 Descending Chicago Center
08:07PM 41.5200 -86.7525 270° West 246 283 10,000  Level Chicago Center
08:08PM 41.5189 -86.8469 269° West 254 292 10,000 -540 Level Chicago Center
08:09PM 41.5183 -86.9419 270° West 256 295 9,000 -1,260 Descending Chicago Center
08:10PM 41.5178 -87.0367 270° West 257 296 7,500 -1,500 Descending Chicago Center
08:11PM 41.5164 -87.1508 269° West 257 296 6,000 -1,200 Descending Chicago Center
08:12PM 41.5342 -87.2414 285° West 253 291 5,100 -900 Descending Chicago Center
08:13PM 41.5589 -87.3328 290° West 261 300 4,200 -540 Descending Chicago Center
08:14PM 41.5700 -87.4256 279° West 261 300 4,000 -120 Descending Chicago Center
08:15PM 41.5692 -87.5192 269° West 258 297 4,000  Level Chicago Center
08:16PM 41.5683 -87.6297 269° West 253 291 4,000  Level Chicago Center
08:17PM 41.5700 -87.7083 272° West 231 266 4,000  Level Chicago Center
08:18PM 41.5731 -87.7694 274° West 187 215 4,000  Level Chicago Center
08:19PM 41.5753 -87.8317 273° West 175 201 4,000 -300 Level Chicago Center
08:20PM 41.5925 -87.8889 292° West 179 206 3,500 -540 Descending Chicago Center
08:21PM 41.6264 -87.9517 306° West 177 204 3,000 -540 Descending Chicago Center
08:22PM 41.6544 -88.0050 305° West 177 204 2,500 -300 Descending Chicago Center
08:23PM 41.6831 -88.0583 306° West 177 204 2,500  Level Chicago Center
08:24PM 41.7217 -88.0964 324° Northwest 190 219 2,500  Level Chicago Center
08:25PM 41.7706 -88.0722 20° North 200 230 2,500  Level Chicago Center
08:27PM 41.8267 -88.0206 34° Northeast 203 234 2,500  Level Chicago Center
08:28PM 41.8708 -87.9778 36° Northeast 200 230 2,500  Level Chicago Center
08:28PM 41.9000 -87.9333 49° Northeast 187 215 2,500 -240 Level Chicago TRACON
08:29PM 41.8833 -87.8833 114° Southeast 156 180 2,100 -240 Descending Chicago TRACON
08:30PM 41.8500 -87.8333 132° Southeast 153 176 2,100 -300 Level Chicago TRACON
08:31PM 41.8167 -87.8000 143° Southeast 138 159 1,500 -540 Descending Chicago TRACON
08:33PM 41.7872 -87.7569 133° Southeast 145 167 900 -480 Descending Chicago Center